Time;durP1;ratioP1;P1;durP2;ratioP2;P2;SDS_P1;SDS_P2;PMS_P1;PMS_P2;Temp;Humidity;BMP_temperature;BMP_pressure;BME280_temperature;BME280_humidity;BME280_pressure;Samples;Min_cycle;Max_cycle;Signal;HPM_P1;HPM_P2
2022/10/28 00:00:16;;;;;;;13.63;4.10;;;15.80;99.90;;;;;;4233390;28;20036;-85
2022/10/28 00:02:16;;;;;;;12.20;4.53;;;15.80;99.90;;;;;;4233977;28;20058;-85
2022/10/28 00:04:17;;;;;;;10.52;5.00;;;15.70;99.90;;;;;;4233302;28;20549;-85
2022/10/28 00:06:27;;;;;;;9.93;4.97;;;15.70;99.90;;;;;;4232438;28;20405;-85
2022/10/28 00:08:28;;;;;;;9.98;4.63;;;15.70;99.90;;;;;;4233489;28;20409;-85
2022/10/28 00:10:28;;;;;;;14.13;5.13;;;15.70;99.90;;;;;;4232726;28;20043;-85
2022/10/28 00:12:35;;;;;;;18.38;5.13;;;15.70;99.90;;;;;;4232933;28;20051;-85
2022/10/28 00:14:35;;;;;;;10.35;4.75;;;15.60;99.90;;;;;;4216130;28;20478;-85
2022/10/28 00:16:37;;;;;;;17.35;4.47;;;15.60;99.90;;;;;;4215547;28;20105;-85
2022/10/28 00:18:39;;;;;;;15.35;4.90;;;15.60;99.90;;;;;;4214772;28;20054;-85
2022/10/28 00:20:39;;;;;;;12.85;5.15;;;15.70;99.90;;;;;;4215880;28;20044;-85
2022/10/28 00:22:40;;;;;;;11.43;5.15;;;15.70;99.90;;;;;;4226284;28;20054;-85
2022/10/28 00:24:41;;;;;;;11.25;4.82;;;15.70;99.90;;;;;;4232534;28;20420;-85
2022/10/28 00:26:43;;;;;;;16.98;5.20;;;15.70;99.90;;;;;;4231967;28;20055;-85
2022/10/28 00:28:50;;;;;;;13.10;5.47;;;15.70;99.90;;;;;;4232556;28;20101;-85
2022/10/28 00:30:51;;;;;;;14.25;5.45;;;15.70;99.90;;;;;;4228512;28;20044;-85
2022/10/28 00:32:52;;;;;;;15.30;5.93;;;15.70;99.90;;;;;;4215169;28;20116;-84
2022/10/28 00:34:52;;;;;;;9.15;5.13;;;15.80;99.90;;;;;;4214862;28;20051;-84
2022/10/28 00:36:53;;;;;;;11.93;4.90;;;15.70;99.90;;;;;;4215291;28;20036;-84
2022/10/28 00:38:55;;;;;;;9.98;5.32;;;15.70;99.90;;;;;;4214995;28;20048;-84
2022/10/28 00:40:56;;;;;;;15.57;4.75;;;15.70;99.90;;;;;;4216403;28;20040;-84
2022/10/28 00:42:56;;;;;;;20.15;6.88;;;15.70;99.90;;;;;;4215366;28;20102;-83
2022/10/28 00:45:02;;;;;;;10.43;5.15;;;15.70;99.90;;;;;;4215793;28;20177;-84
2022/10/28 00:47:04;;;;;;;14.95;6.78;;;15.70;99.90;;;;;;4213954;28;20091;-84
2022/10/28 00:49:25;;;;;;;9.25;5.15;;;15.80;99.90;;;;;;4220016;28;20040;-83
2022/10/28 00:51:27;;;;;;;9.50;4.88;;;15.70;99.90;;;;;;4232015;28;20039;-84
2022/10/28 00:53:30;;;;;;;14.68;5.72;;;15.70;99.90;;;;;;4231560;28;20048;-84
2022/10/28 00:55:32;;;;;;;17.77;6.03;;;15.70;99.90;;;;;;4231801;28;20496;-84
2022/10/28 00:57:35;;;;;;;15.13;5.60;;;15.60;99.90;;;;;;4231826;28;20055;-84
2022/10/28 00:59:41;;;;;;;14.05;5.07;;;15.60;99.90;;;;;;4232091;28;20112;-84
2022/10/28 01:01:41;;;;;;;11.23;5.57;;;15.60;99.90;;;;;;4231870;28;20032;-85
2022/10/28 01:03:42;;;;;;;11.30;5.50;;;15.60;99.90;;;;;;4229146;28;20229;-84
2022/10/28 01:05:46;;;;;;;17.95;6.82;;;15.60;99.90;;;;;;4214581;28;20133;-85
2022/10/28 01:07:50;;;;;;;12.65;4.70;;;15.50;99.90;;;;;;4214588;28;20040;-84
2022/10/28 01:09:51;;;;;;;10.07;5.03;;;15.50;99.90;;;;;;4214406;28;20044;-84
2022/10/28 01:12:22;;;;;;;11.05;4.78;;;15.50;99.90;;;;;;4214914;28;20101;-84
2022/10/28 01:14:36;;;;;;;13.45;5.22;;;15.50;99.90;;;;;;4214165;28;20105;-84
2022/10/28 01:16:51;;;;;;;12.48;5.20;;;15.50;99.90;;;;;;4223806;28;20091;-85
2022/10/28 01:19:15;;;;;;;13.90;5.43;;;15.50;99.90;;;;;;4228596;28;20528;-84
2022/10/28 01:21:54;;;;;;;10.88;4.63;;;15.50;99.90;;;;;;4213945;28;20088;-84
2022/10/28 01:24:12;;;;;;;11.70;5.30;;;15.40;99.90;;;;;;4219327;28;20057;-84
2022/10/28 01:26:51;;;;;;;10.85;5.28;;;15.40;99.90;;;;;;4228855;28;20119;-84
2022/10/28 01:29:23;;;;;;;11.63;5.38;;;15.40;99.90;;;;;;4231691;28;20086;-84
2022/10/28 01:31:42;;;;;;;19.15;6.20;;;15.40;99.90;;;;;;4213465;28;20089;-84
2022/10/28 01:34:02;;;;;;;12.82;4.95;;;15.30;99.90;;;;;;4231307;28;20043;-84
2022/10/28 01:36:40;;;;;;;18.55;5.55;;;15.30;99.90;;;;;;4231350;28;20035;-84
2022/10/28 01:38:52;;;;;;;12.55;5.30;;;15.30;99.90;;;;;;4213735;28;20482;-84
2022/10/28 01:41:15;;;;;;;14.48;5.38;;;15.30;99.90;;;;;;4226633;28;20051;-84
2022/10/28 01:43:28;;;;;;;16.65;5.75;;;15.20;99.90;;;;;;4229860;28;20050;-84
2022/10/28 01:45:48;;;;;;;12.18;5.55;;;15.20;99.90;;;;;;4231209;28;20512;-84
2022/10/28 01:48:07;;;;;;;14.02;5.75;;;15.20;99.90;;;;;;4231818;28;20866;-84
2022/10/28 01:50:25;;;;;;;14.60;4.97;;;15.20;99.90;;;;;;4231225;28;20047;-84
2022/10/28 01:52:29;;;;;;;14.05;5.78;;;15.10;99.90;;;;;;4231325;28;20069;-84
2022/10/28 01:54:32;;;;;;;14.60;5.90;;;15.10;99.90;;;;;;4230377;28;20039;-84
2022/10/28 01:56:40;;;;;;;17.08;5.43;;;15.10;99.90;;;;;;4214674;28;20421;-84
2022/10/28 01:58:42;;;;;;;15.65;5.43;;;15.10;99.90;;;;;;4214159;28;20401;-84
2022/10/28 02:00:45;;;;;;;13.02;5.90;;;15.10;99.90;;;;;;4214307;28;20485;-84
2022/10/28 02:02:48;;;;;;;13.40;5.38;;;15.10;99.90;;;;;;4214517;28;20507;-85
2022/10/28 02:04:48;;;;;;;14.25;6.50;;;15.10;99.90;;;;;;4224913;28;20051;-84
2022/10/28 02:06:53;;;;;;;13.05;5.75;;;15.10;99.90;;;;;;4231022;28;20513;-85
2022/10/28 02:09:05;;;;;;;14.07;6.72;;;15.00;99.90;;;;;;4230982;28;20046;-85
2022/10/28 02:11:15;;;;;;;13.75;6.25;;;15.00;99.90;;;;;;4229882;28;20559;-84
2022/10/28 02:13:18;;;;;;;;;;;15.00;99.90;;;;;;4221178;28;20054;-84
2022/10/28 02:15:27;;;;;;;15.13;5.78;;;14.90;99.90;;;;;;4231151;28;19942;-84
2022/10/28 02:17:39;;;;;;;11.80;5.90;;;14.90;99.90;;;;;;4229979;28;20048;-84
2022/10/28 02:20:11;;;;;;;15.20;7.07;;;14.90;99.90;;;;;;4220199;28;20525;-84
2022/10/28 02:22:56;;;;;;;16.63;6.60;;;14.90;99.90;;;;;;4219842;28;20082;-84
2022/10/28 02:25:15;;;;;;;13.65;6.03;;;14.90;99.90;;;;;;4230256;28;20463;-84
2022/10/28 02:27:24;;;;;;;14.65;5.57;;;14.90;99.90;;;;;;4230738;28;20043;-85
2022/10/28 02:29:33;;;;;;;14.33;6.53;;;14.80;99.90;;;;;;4227697;28;20055;-84
2022/10/28 02:32:04;;;;;;;19.75;6.00;;;14.80;99.90;;;;;;4221321;28;20048;-85
2022/10/28 02:34:13;;;;;;;19.13;6.03;;;14.80;99.90;;;;;;4212910;28;20090;-84
2022/10/28 02:36:17;;;;;;;16.40;6.18;;;14.80;99.90;;;;;;4213897;28;20438;-84
2022/10/28 02:38:40;;;;;;;20.52;7.25;;;14.80;99.90;;;;;;4213481;28;20040;-84
2022/10/28 02:40:46;;;;;;;14.85;6.53;;;14.80;99.90;;;;;;4211767;28;20044;-85
2022/10/28 02:42:50;;;;;;;17.40;6.90;;;14.70;99.90;;;;;;4213631;28;20493;-85
2022/10/28 02:44:59;;;;;;;12.70;6.13;;;14.70;99.90;;;;;;4216248;28;20512;-85
2022/10/28 02:47:12;;;;;;;11.52;5.95;;;14.70;99.90;;;;;;4217655;28;20051;-85
2022/10/28 02:49:14;;;;;;;19.75;7.60;;;14.70;99.90;;;;;;4213784;28;20048;-85
2022/10/28 02:51:26;;;;;;;11.68;7.10;;;14.70;99.90;;;;;;4217298;28;20532;-85
2022/10/28 02:53:41;;;;;;;20.27;6.35;;;14.70;99.90;;;;;;4216938;28;20048;-85
2022/10/28 02:55:44;;;;;;;14.95;6.90;;;14.70;99.90;;;;;;4217021;28;20126;-85
2022/10/28 02:57:48;;;;;;;11.07;6.38;;;14.70;99.90;;;;;;4219094;28;20048;-85
2022/10/28 03:00:00;;;;;;;14.95;7.05;;;14.70;99.90;;;;;;4233835;28;20409;-85
2022/10/28 03:02:04;;;;;;;15.98;6.70;;;14.70;99.90;;;;;;4220311;28;20400;-85
2022/10/28 03:04:05;;;;;;;15.45;7.60;;;14.70;99.90;;;;;;4233094;28;20036;-85
2022/10/28 03:06:07;;;;;;;17.73;6.97;;;14.70;99.90;;;;;;4234042;28;20378;-85
2022/10/28 03:08:08;;;;;;;14.13;6.82;;;14.70;99.90;;;;;;4233708;28;20051;-85
2022/10/28 03:10:10;;;;;;;14.88;6.38;;;14.70;99.90;;;;;;4233846;28;20040;-84
2022/10/28 03:12:11;;;;;;;20.55;7.15;;;14.60;99.90;;;;;;4232212;28;20539;-85
2022/10/28 03:14:11;;;;;;;16.55;7.13;;;14.70;99.90;;;;;;4233282;28;20040;-85
2022/10/28 03:16:12;;;;;;;16.92;6.57;;;14.60;99.90;;;;;;4233435;28;20104;-85
2022/10/28 03:18:13;;;;;;;20.17;7.60;;;14.60;99.90;;;;;;4232582;28;20040;-85
2022/10/28 03:20:14;;;;;;;14.98;7.22;;;14.60;99.90;;;;;;4233655;28;20115;-85
2022/10/28 03:22:14;;;;;;;23.27;8.00;;;14.50;99.90;;;;;;4232116;28;20047;-85
2022/10/28 03:24:15;;;;;;;13.27;7.10;;;14.50;99.90;;;;;;4233444;28;20126;-85
2022/10/28 03:26:16;;;;;;;19.90;7.40;;;14.50;99.90;;;;;;4233216;28;20071;-85
2022/10/28 03:28:17;;;;;;;18.98;7.88;;;14.50;99.90;;;;;;4232784;28;20043;-85
2022/10/28 03:30:17;;;;;;;23.75;8.57;;;14.50;99.90;;;;;;4233258;28;20036;-85
2022/10/28 03:32:19;;;;;;;15.88;7.60;;;14.40;99.90;;;;;;4217612;28;20040;-85
2022/10/28 03:34:20;;;;;;;16.70;8.02;;;14.40;99.90;;;;;;4216145;28;20044;-85
2022/10/28 03:36:20;;;;;;;22.10;8.25;;;14.40;99.90;;;;;;4223461;28;20374;-85
2022/10/28 03:38:21;;;;;;;18.25;7.30;;;14.30;99.90;;;;;;4216664;28;20047;-85
2022/10/28 03:40:22;;;;;;;21.63;8.93;;;14.40;99.90;;;;;;4215517;28;20494;-85
2022/10/28 03:42:23;;;;;;;18.80;8.18;;;14.40;99.90;;;;;;4216304;28;20141;-85
2022/10/28 03:44:24;;;;;;;19.92;8.05;;;14.30;99.90;;;;;;4216014;28;20499;-85
2022/10/28 03:46:25;;;;;;;16.90;7.60;;;14.30;99.90;;;;;;4214670;28;20051;-85
2022/10/28 03:48:25;;;;;;;18.65;8.00;;;14.30;99.90;;;;;;4197715;28;20127;-84
2022/10/28 03:50:26;;;;;;;20.13;7.93;;;14.30;99.90;;;;;;4216188;28;20486;-86
2022/10/28 03:52:27;;;;;;;17.90;8.23;;;14.30;99.90;;;;;;4216092;28;20520;-84
2022/10/28 03:54:27;;;;;;;20.98;8.27;;;14.30;99.90;;;;;;4222169;28;20085;-85
2022/10/28 03:56:28;;;;;;;22.17;8.27;;;14.30;99.90;;;;;;4217279;28;20104;-85
2022/10/28 03:58:29;;;;;;;16.83;7.68;;;14.30;99.90;;;;;;4215677;28;20099;-85
2022/10/28 04:00:29;;;;;;;16.08;8.10;;;14.30;99.90;;;;;;4216878;28;20039;-84
2022/10/28 04:02:30;;;;;;;27.17;9.30;;;14.20;99.90;;;;;;4215736;28;20127;-85
2022/10/28 04:04:31;;;;;;;16.33;8.20;;;14.30;99.90;;;;;;4216766;28;20042;-85
2022/10/28 04:06:32;;;;;;;18.90;9.07;;;14.20;99.90;;;;;;4217144;28;20048;-85
2022/10/28 04:08:33;;;;;;;19.02;8.15;;;14.20;99.90;;;;;;4234122;28;20048;-85
2022/10/28 04:10:34;;;;;;;23.73;8.20;;;14.20;99.90;;;;;;4233524;28;20048;-85
2022/10/28 04:12:34;;;;;;;21.98;8.00;;;14.20;99.90;;;;;;4231850;28;20040;-85
2022/10/28 04:14:35;;;;;;;20.77;9.25;;;14.20;99.90;;;;;;4249536;27;20051;-85
2022/10/28 04:16:36;;;;;;;19.95;8.57;;;14.20;99.90;;;;;;4231987;28;20134;-85
2022/10/28 04:18:36;;;;;;;14.63;8.25;;;14.20;99.90;;;;;;4232327;28;20118;-85
2022/10/28 04:20:37;;;;;;;16.33;8.48;;;14.20;99.90;;;;;;4230649;28;20048;-84
2022/10/28 04:22:38;;;;;;;18.63;8.65;;;14.20;99.90;;;;;;4232441;28;20039;-84
2022/10/28 04:24:39;;;;;;;15.00;7.72;;;14.10;99.90;;;;;;4232106;28;20051;-84
2022/10/28 04:26:39;;;;;;;21.35;9.27;;;14.10;99.90;;;;;;4230833;28;20068;-84
2022/10/28 04:28:40;;;;;;;20.70;8.63;;;14.10;99.90;;;;;;4221911;28;20036;-85
2022/10/28 04:30:41;;;;;;;19.48;7.60;;;14.10;99.90;;;;;;4214166;28;20116;-84
2022/10/28 04:32:42;;;;;;;19.63;8.85;;;14.10;99.90;;;;;;4215288;28;20048;-84
2022/10/28 04:34:43;;;;;;;20.15;9.85;;;14.10;99.90;;;;;;4221043;28;20435;-85
2022/10/28 04:36:44;;;;;;;20.55;8.80;;;14.00;99.90;;;;;;4217585;28;20043;-85
2022/10/28 04:38:44;;;;;;;18.27;8.57;;;14.00;99.90;;;;;;4216014;28;20040;-84
2022/10/28 04:40:49;;;;;;;21.05;8.55;;;14.10;99.90;;;;;;4226521;28;20059;-85
2022/10/28 04:42:49;;;;;;;23.85;8.90;;;14.00;99.90;;;;;;4228526;28;20047;-85
2022/10/28 04:44:50;;;;;;;20.40;9.23;;;14.00;99.90;;;;;;4230515;28;20051;-85
2022/10/28 04:46:54;;;;;;;21.05;9.48;;;14.00;99.90;;;;;;4220759;28;20127;-85
2022/10/28 04:48:54;;;;;;;20.40;8.55;;;14.00;99.90;;;;;;4214283;28;20127;-85
2022/10/28 04:50:56;;;;;;;20.20;9.05;;;14.00;99.90;;;;;;4215041;28;20052;-85
2022/10/28 04:52:57;;;;;;;15.02;8.27;;;13.90;99.90;;;;;;4196886;28;20044;-85
2022/10/28 04:54:57;;;;;;;21.17;8.95;;;13.90;99.90;;;;;;4217659;28;20058;-85
2022/10/28 04:56:58;;;;;;;18.63;8.82;;;13.90;99.90;;;;;;4230485;28;20086;-84
2022/10/28 04:58:59;;;;;;;21.02;8.32;;;13.90;99.90;;;;;;4231632;28;20040;-85
2022/10/28 05:01:07;;;;;;;22.10;9.10;;;13.90;99.90;;;;;;4231117;28;20560;-85
2022/10/28 05:03:08;;;;;;;23.42;8.25;;;13.90;99.90;;;;;;4230272;28;20145;-85
2022/10/28 05:05:08;;;;;;;18.88;8.90;;;13.90;99.90;;;;;;4216032;28;20048;-85
2022/10/28 05:07:09;;;;;;;22.52;9.15;;;13.80;99.90;;;;;;4213339;28;20040;-85
2022/10/28 05:09:10;;;;;;;16.98;7.95;;;13.80;99.90;;;;;;4214559;28;20117;-84
2022/10/28 05:11:12;;;;;;;20.17;8.38;;;13.90;99.90;;;;;;4214604;28;20459;-83
2022/10/28 05:13:13;;;;;;;16.67;8.30;;;13.80;99.90;;;;;;4225054;28;20401;-85
2022/10/28 05:15:14;;;;;;;26.00;8.82;;;13.80;99.90;;;;;;4230591;28;20050;-83
2022/10/28 05:17:15;;;;;;;21.30;8.57;;;13.80;99.90;;;;;;4231480;28;20048;-84
2022/10/28 05:19:16;;;;;;;27.75;9.20;;;13.80;99.90;;;;;;4214476;28;20105;-82
2022/10/28 05:21:17;;;;;;;17.00;8.63;;;13.80;99.90;;;;;;4199328;28;20080;-83
2022/10/28 05:23:17;;;;;;;21.17;8.48;;;13.80;99.90;;;;;;4231094;28;20409;-83
2022/10/28 05:25:19;;;;;;;19.88;7.78;;;13.80;99.90;;;;;;4231459;28;20056;-83
2022/10/28 05:27:19;;;;;;;20.13;9.40;;;13.80;99.90;;;;;;4232805;28;20100;-83
2022/10/28 05:29:21;;;;;;;22.30;8.70;;;13.70;99.90;;;;;;4230862;28;20473;-83
2022/10/28 05:31:23;;;;;;;23.60;8.65;;;13.70;99.90;;;;;;4223871;28;20040;-85
2022/10/28 05:33:24;;;;;;;21.00;9.55;;;13.70;99.90;;;;;;4232387;28;20077;-84
2022/10/28 05:35:24;;;;;;;23.48;9.13;;;13.70;99.90;;;;;;4229941;28;20040;-84
2022/10/28 05:37:25;;;;;;;18.90;8.63;;;13.70;99.90;;;;;;4230538;28;20151;-84
2022/10/28 05:39:27;;;;;;;19.45;8.75;;;13.70;99.90;;;;;;4213101;28;20542;-83
2022/10/28 05:41:27;;;;;;;21.20;8.20;;;13.70;99.90;;;;;;4214724;28;20048;-83
2022/10/28 05:43:28;;;;;;;24.55;9.02;;;13.70;99.90;;;;;;4215155;28;20397;-83
2022/10/28 05:45:29;;;;;;;17.30;8.85;;;13.70;99.90;;;;;;4196629;28;20106;-83
2022/10/28 05:47:30;;;;;;;18.27;9.00;;;13.60;99.90;;;;;;4213491;28;20048;-83
2022/10/28 05:49:31;;;;;;;24.75;8.70;;;13.60;99.90;;;;;;4204890;28;20528;-83
2022/10/28 05:51:31;;;;;;;21.00;9.55;;;13.60;99.90;;;;;;4229771;28;20052;-84
2022/10/28 05:53:32;;;;;;;17.67;8.43;;;13.60;99.90;;;;;;4231064;28;20043;-83
2022/10/28 05:55:34;;;;;;;18.60;8.93;;;13.60;99.90;;;;;;4226259;27;20493;-83
2022/10/28 05:57:34;;;;;;;16.60;8.85;;;13.60;99.90;;;;;;4218443;28;20436;-83
2022/10/28 05:59:38;;;;;;;17.65;7.90;;;13.50;99.90;;;;;;4227925;28;20098;-86
2022/10/28 06:01:44;;;;;;;17.55;8.35;;;13.50;99.90;;;;;;4232750;28;20039;-85
2022/10/28 06:03:46;;;;;;;22.38;8.93;;;13.50;99.90;;;;;;4216302;28;20056;-84
2022/10/28 06:05:46;;;;;;;15.20;8.57;;;13.50;99.90;;;;;;4218214;28;20040;-86
2022/10/28 06:07:52;;;;;;;19.50;8.35;;;13.50;99.90;;;;;;4228439;28;20122;-85
2022/10/28 06:09:54;;;;;;;16.92;8.27;;;13.50;99.90;;;;;;4222869;28;20048;-84
2022/10/28 06:11:55;;;;;;;18.65;9.07;;;13.50;99.90;;;;;;4229138;28;20122;-83
2022/10/28 06:13:56;;;;;;;15.60;7.68;;;13.40;99.90;;;;;;4231855;28;20039;-85
2022/10/28 06:15:57;;;;;;;20.48;8.32;;;13.40;99.90;;;;;;4226328;28;20130;-83
2022/10/28 06:17:58;;;;;;;18.73;7.78;;;13.40;99.90;;;;;;4229229;28;20043;-84
2022/10/28 06:19:59;;;;;;;16.50;7.90;;;13.40;99.90;;;;;;4220454;28;20185;-83
2022/10/28 06:22:00;;;;;;;21.20;8.00;;;13.40;99.90;;;;;;4229040;28;20565;-82
2022/10/28 06:24:01;;;;;;;18.40;8.80;;;13.40;99.90;;;;;;4222849;28;20045;-83
2022/10/28 06:26:04;;;;;;;19.08;8.18;;;13.40;99.90;;;;;;4230987;28;20077;-84
2022/10/28 06:28:06;;;;;;;21.38;8.50;;;13.40;99.90;;;;;;4227211;28;20039;-84
2022/10/28 06:30:09;;;;;;;18.88;8.05;;;13.40;99.90;;;;;;4233548;27;20044;-84
2022/10/28 06:32:11;;;;;;;20.30;8.88;;;13.40;99.90;;;;;;4236383;28;20036;-84
2022/10/28 06:34:12;;;;;;;17.27;8.77;;;13.40;99.90;;;;;;4236460;27;20493;-85
2022/10/28 06:36:16;;;;;;;18.45;8.55;;;13.40;99.90;;;;;;4222498;28;20055;-84
2022/10/28 06:38:17;;;;;;;22.42;8.10;;;13.40;99.90;;;;;;4234578;27;20051;-85
2022/10/28 06:40:18;;;;;;;20.65;8.48;;;13.40;99.90;;;;;;4232032;28;20047;-85
2022/10/28 06:42:19;;;;;;;20.48;8.00;;;13.40;99.90;;;;;;4230844;28;20069;-87
2022/10/28 06:44:20;;;;;;;20.50;8.73;;;13.40;99.90;;;;;;4231413;28;20048;-86
2022/10/28 06:46:21;;;;;;;19.00;8.60;;;13.40;99.90;;;;;;4234012;27;20370;-83
2022/10/28 06:48:23;;;;;;;18.42;9.45;;;13.40;99.90;;;;;;4221278;28;20047;-82
2022/10/28 06:50:24;;;;;;;16.10;8.90;;;13.40;99.90;;;;;;4215026;28;20578;-84
2022/10/28 06:52:25;;;;;;;20.73;8.20;;;13.40;99.90;;;;;;4219363;28;20044;-83
2022/10/28 06:54:26;;;;;;;21.65;9.15;;;13.40;99.90;;;;;;4232833;28;20568;-84
2022/10/28 06:56:27;;;;;;;16.77;8.02;;;13.10;99.90;;;;;;4234449;28;20035;-84
2022/10/28 06:58:28;;;;;;;22.27;9.20;;;14.10;99.90;;;;;;4207342;28;20043;-82
2022/10/28 07:00:30;;;;;;;22.05;10.02;;;13.50;99.90;;;;;;4225359;28;20032;-83
2022/10/28 07:02:33;;;;;;;20.90;9.77;;;13.50;99.90;;;;;;4231099;28;20047;-84
2022/10/28 07:04:34;;;;;;;22.63;8.57;;;13.50;99.90;;;;;;4233185;27;20397;-84
2022/10/28 07:06:35;;;;;;;27.02;9.07;;;13.60;99.90;;;;;;4225006;28;20047;-83
2022/10/28 07:08:37;;;;;;;28.63;9.13;;;13.60;99.90;;;;;;4234009;28;20404;-84
2022/10/28 07:10:38;;;;;;;22.33;9.00;;;13.70;99.90;;;;;;4225209;28;20056;-84
2022/10/28 07:12:39;;;;;;;28.90;10.10;;;13.70;99.90;;;;;;4233134;28;20105;-84
2022/10/28 07:14:39;;;;;;;28.63;8.68;;;13.80;99.90;;;;;;4232523;27;20363;-83
2022/10/28 07:16:41;;;;;;;18.50;8.85;;;13.80;99.90;;;;;;4232634;28;20437;-83
2022/10/28 07:18:42;;;;;;;18.92;8.18;;;13.80;99.90;;;;;;4224772;28;20051;-84
2022/10/28 07:20:43;;;;;;;20.10;7.88;;;13.80;99.90;;;;;;4225143;28;20040;-84
2022/10/28 07:22:44;;;;;;;14.85;7.57;;;13.90;99.90;;;;;;4226383;28;20093;-85
2022/10/28 07:24:46;;;;;;;21.38;7.32;;;13.90;99.90;;;;;;4236586;27;20055;-84
2022/10/28 07:26:50;;;;;;;19.52;7.50;;;14.00;99.90;;;;;;4236167;28;20405;-84
2022/10/28 07:28:51;;;;;;;15.63;7.60;;;14.00;99.90;;;;;;4228212;27;20052;-85
2022/10/28 07:30:52;;;;;;;22.80;7.57;;;13.80;99.90;;;;;;4233114;28;20417;-84
2022/10/28 07:32:53;;;;;;;14.45;6.82;;;14.10;99.90;;;;;;4220120;28;20044;-84
2022/10/28 07:34:54;;;;;;;21.95;7.50;;;14.20;99.90;;;;;;4231267;28;20112;-84
2022/10/28 07:36:55;;;;;;;14.40;6.88;;;14.20;99.90;;;;;;4225628;28;20044;-83
2022/10/28 07:38:56;;;;;;;18.77;7.18;;;14.30;99.90;;;;;;4221421;28;20515;-84
2022/10/28 07:40:57;;;;;;;16.42;8.50;;;14.40;99.90;;;;;;4232631;28;20051;-83
2022/10/28 07:42:58;;;;;;;15.40;7.05;;;14.40;99.90;;;;;;4232487;28;20075;-85
2022/10/28 07:44:58;;;;;;;16.60;7.47;;;14.50;99.90;;;;;;4219581;28;20413;-85
2022/10/28 07:46:59;;;;;;;26.00;8.32;;;14.60;99.90;;;;;;4228097;28;20067;-83
2022/10/28 07:49:00;;;;;;;15.70;6.38;;;14.70;99.90;;;;;;4228682;28;20097;-84
2022/10/28 07:51:06;;;;;;;12.32;6.57;;;14.70;99.90;;;;;;4228734;28;20040;-85
2022/10/28 07:53:07;;;;;;;19.80;6.28;;;15.60;99.90;;;;;;4232254;28;20046;-83
2022/10/28 07:55:10;;;;;;;17.88;6.13;;;14.90;99.90;;;;;;4229013;28;20040;-83
2022/10/28 07:57:10;;;;;;;17.63;6.30;;;15.00;99.90;;;;;;4227959;28;20044;-83
2022/10/28 07:59:11;;;;;;;17.42;7.00;;;15.00;99.90;;;;;;4229225;28;20039;-83
2022/10/28 08:01:14;;;;;;;14.60;5.82;;;15.20;99.90;;;;;;4217610;28;20067;-84
2022/10/28 08:03:15;;;;;;;13.50;5.55;;;15.20;99.90;;;;;;4228603;28;20044;-83
2022/10/28 08:05:16;;;;;;;15.75;5.07;;;15.30;99.90;;;;;;4212234;28;20075;-84
2022/10/28 08:07:19;;;;;;;13.90;5.10;;;15.40;99.90;;;;;;4222399;28;20524;-85
2022/10/28 08:09:19;;;;;;;11.00;4.90;;;15.60;99.90;;;;;;4222212;28;20482;-84
2022/10/28 08:11:22;;;;;;;10.93;5.15;;;15.70;99.90;;;;;;4220089;28;20046;-85
2022/10/28 08:13:24;;;;;;;12.82;5.68;;;15.80;99.90;;;;;;4219498;28;20461;-85
2022/10/28 08:15:25;;;;;;;16.75;5.40;;;15.90;99.90;;;;;;4231562;28;20096;-83
2022/10/28 08:17:26;;;;;;;13.40;4.97;;;16.10;99.90;;;;;;4231456;28;20447;-85
2022/10/28 08:19:26;;;;;;;12.88;4.57;;;16.20;99.90;;;;;;4221302;28;20039;-82
2022/10/28 08:21:27;;;;;;;12.05;5.18;;;16.40;99.90;;;;;;4228712;27;20031;-83
2022/10/28 08:23:29;;;;;;;19.15;4.55;;;16.70;99.90;;;;;;4233049;27;20413;-83
2022/10/28 08:25:30;;;;;;;14.95;4.85;;;16.70;99.90;;;;;;4231793;28;20100;-85
2022/10/28 08:27:31;;;;;;;11.27;3.80;;;17.80;99.90;;;;;;4233572;28;20501;-84
2022/10/28 08:29:31;;;;;;;8.25;3.75;;;18.30;99.90;;;;;;4232502;28;20090;-84
2022/10/28 08:31:33;;;;;;;16.42;4.10;;;18.40;99.90;;;;;;4230742;28;20490;-83
2022/10/28 08:33:37;;;;;;;8.43;4.03;;;18.40;99.90;;;;;;4217105;28;20040;-87
2022/10/28 08:35:37;;;;;;;14.10;4.50;;;18.40;99.90;;;;;;4232275;28;20440;-86
2022/10/28 08:37:38;;;;;;;13.70;3.58;;;18.40;99.90;;;;;;4233819;28;20071;-88
2022/10/28 08:39:39;;;;;;;9.30;3.70;;;18.90;99.90;;;;;;4235044;28;20047;-87
2022/10/28 08:41:51;;;;;;;12.63;4.40;;;19.20;99.90;;;;;;4222557;28;20047;-86
2022/10/28 08:44:30;;;;;;;14.95;5.10;;;19.50;99.90;;;;;;4231495;28;20122;-87
2022/10/28 08:46:56;;;;;;;13.38;4.50;;;19.70;99.90;;;;;;4219337;28;20086;-85
2022/10/28 08:48:57;;;;;;;10.45;4.15;;;19.80;99.90;;;;;;4215579;28;20048;-86
2022/10/28 08:51:10;;;;;;;13.25;3.88;;;19.60;99.90;;;;;;4216456;28;20501;-86
2022/10/28 08:53:17;;;;;;;12.32;4.05;;;19.50;99.90;;;;;;4233652;28;20044;-86
2022/10/28 08:55:42;;;;;;;10.32;3.67;;;19.70;99.90;;;;;;4217807;28;20052;-86
2022/10/28 08:57:53;;;;;;;13.63;4.65;;;19.70;99.90;;;;;;4241013;27;20515;-86
2022/10/28 08:59:54;;;;;;;9.48;3.67;;;19.80;99.90;;;;;;4218328;28;20047;-86
2022/10/28 09:02:02;;;;;;;14.77;4.03;;;20.20;99.90;;;;;;4246999;27;20528;-86
2022/10/28 09:04:11;;;;;;;17.02;4.28;;;20.30;99.90;;;;;;4222574;28;20550;-88
2022/10/28 09:06:12;;;;;;;11.27;3.70;;;20.30;99.90;;;;;;4230479;28;20040;-88
2022/10/28 09:08:27;;;;;;;13.68;4.50;;;20.20;99.90;;;;;;4241809;28;20049;-88
2022/10/28 09:10:42;;;;;;;9.98;3.38;;;20.00;99.90;;;;;;4225100;28;20047;-88
2022/10/28 09:13:15;;;;;;;14.48;3.80;;;19.60;99.90;;;;;;4219027;28;20047;-88
2022/10/28 09:15:41;;;;;;;14.45;4.07;;;19.40;99.90;;;;;;4235760;28;20528;-88
2022/10/28 09:17:53;;;;;;;9.55;4.00;;;19.20;99.90;;;;;;4217831;28;20048;-88
2022/10/28 09:20:32;;;;;;;13.55;4.10;;;18.90;99.90;;;;;;4235055;28;20097;-87
2022/10/28 09:22:51;;;;;;;10.88;3.10;;;18.70;99.90;;;;;;4211882;28;20056;-86
2022/10/28 09:24:59;;;;;;;27.13;5.18;;;18.60;99.90;;;;;;4213968;28;20051;-88
2022/10/28 09:27:16;;;;;;;20.60;4.38;;;18.50;99.90;;;;;;4234333;28;20058;-88
2022/10/28 09:29:37;;;;;;;21.88;4.57;;;18.40;99.90;;;;;;4234034;28;20047;-86
2022/10/28 09:31:56;;;;;;;10.57;3.88;;;18.40;99.90;;;;;;4233311;28;20522;-87
2022/10/28 09:34:23;;;;;;;7.90;3.55;;;18.30;99.90;;;;;;4234339;28;20039;-87
2022/10/28 09:36:31;;;;;;;14.88;4.68;;;18.30;99.90;;;;;;4231809;28;20059;-87
2022/10/28 09:38:35;;;;;;;13.43;3.67;;;18.20;99.90;;;;;;4217641;28;20054;-88
2022/10/28 09:40:39;;;;;;;18.63;4.07;;;18.30;99.90;;;;;;4228999;28;20047;-88
2022/10/28 09:42:48;;;;;;;12.32;4.13;;;18.20;99.90;;;;;;4235306;28;20095;-86
2022/10/28 09:45:14;;;;;;;12.70;3.53;;;18.30;99.90;;;;;;4233865;28;20063;-87
2022/10/28 09:47:22;;;;;;;10.80;4.13;;;18.20;99.90;;;;;;4219388;28;20291;-87
2022/10/28 09:49:36;;;;;;;12.50;4.05;;;18.20;99.90;;;;;;4223518;28;20086;-88
2022/10/28 09:51:36;;;;;;;7.53;3.72;;;18.10;99.90;;;;;;4234172;28;20526;-87
2022/10/28 09:53:47;;;;;;;11.43;3.95;;;18.10;99.90;;;;;;4233968;28;20055;-89
2022/10/28 09:55:49;;;;;;;10.57;4.38;;;18.10;99.90;;;;;;4240270;28;20051;-88
2022/10/28 09:57:50;;;;;;;13.38;4.18;;;18.10;99.90;;;;;;4235571;28;20756;-88
2022/10/28 09:59:58;;;;;;;8.05;3.33;;;18.00;99.90;;;;;;4233175;28;20067;-88
2022/10/28 10:01:59;;;;;;;14.93;3.78;;;18.00;99.90;;;;;;4218253;28;20125;-88
2022/10/28 10:04:01;;;;;;;11.10;3.75;;;18.00;99.90;;;;;;4219131;28;20508;-87
2022/10/28 10:06:12;;;;;;;11.13;3.63;;;18.00;99.90;;;;;;4233946;28;20051;-89
2022/10/28 10:08:16;;;;;;;14.85;5.03;;;18.00;99.90;;;;;;4234434;28;20147;-87
2022/10/28 10:10:24;;;;;;;9.80;3.65;;;18.00;99.90;;;;;;4233542;28;20086;-88
2022/10/28 10:12:26;;;;;;;13.85;3.72;;;18.10;99.90;;;;;;4234176;28;20035;-86
2022/10/28 10:14:39;;;;;;;8.00;3.58;;;18.10;99.90;;;;;;4221242;28;20044;-87
2022/10/28 10:17:00;;;;;;;10.90;3.88;;;18.20;99.90;;;;;;4225390;28;20526;-86
2022/10/28 10:19:03;;;;;;;10.48;3.30;;;18.30;99.90;;;;;;4217025;28;20048;-86
2022/10/28 10:21:05;;;;;;;13.30;4.18;;;18.00;99.90;;;;;;4198200;28;20118;-86
2022/10/28 10:23:28;;;;;;;17.58;3.78;;;18.30;99.90;;;;;;4230506;28;20092;-88
2022/10/28 10:25:29;;;;;;;14.05;3.20;;;18.40;99.90;;;;;;4231815;28;20508;-88
2022/10/28 10:27:32;;;;;;;13.07;3.67;;;18.40;99.90;;;;;;4231792;28;20043;-88
2022/10/28 10:29:34;;;;;;;10.30;4.45;;;18.40;99.90;;;;;;4214544;28;20043;-88
2022/10/28 10:31:35;;;;;;;12.20;4.45;;;18.50;99.90;;;;;;4206472;28;20052;-87
2022/10/28 10:33:39;;;;;;;8.55;3.20;;;18.50;99.90;;;;;;4231994;28;20119;-87
2022/10/28 10:35:41;;;;;;;16.77;4.78;;;18.60;99.90;;;;;;4231991;28;20048;-87
2022/10/28 10:37:46;;;;;;;12.45;3.25;;;18.70;99.90;;;;;;4230667;28;20059;-86
2022/10/28 10:40:01;;;;;;;10.30;3.65;;;18.70;99.90;;;;;;4230433;28;20081;-85
2022/10/28 10:42:02;;;;;;;14.98;3.50;;;18.80;99.90;;;;;;4232671;28;20059;-87
2022/10/28 10:44:33;;;;;;;11.65;3.50;;;18.80;99.90;;;;;;4220071;28;20043;-84